Preview of NWS' New Version of Forecast
This preview is not operational and should not be used for support decisions.

Terminal Aerodrome Forecast (TAF)

Issued by National Weather Service (NWS)

                            
000
FTUS42 KCAE 191942 AAA
TAFOGB
TAF AMD
KOGB 191942Z 1920/2018 18006KT P6SM VCTS BKN040CB BKN200
      TEMPO 1921/1924 VRB10G25KT 1 1/2SM TSRA OVC020CB
     FM200100 VRB05KT P6SM VCSH BKN035
     FM201600 21007KT P6SM VCTS BKN040CB BKN150=